BVI12KE FAOR-NZAA
Flight info
| Callsign | BVI12KE |
|---|---|
| Flight time | N/A |
| Altitude | 31000 |
| Route | APDAK1B APDAK UQ48 AVAVA DCT 34S033E/N0491F300 39S036E/N0488F320 43S040E 48S045E 52S051E 56S058E/N0489F340 60S066E 63S076E 65S088E 66S102E/N0473F350 65S115E/N0482F360 64S128E/N0474F350 62S140E/N0476F370 58S149E 55S156E 50S163E DCT NV/N0475F390 Q787 QN Y569 PEDPO Q335 DAPNO Y883 LEBOX Y655 POKOM Q277 DAVEE |
| Aircraft | B744/H-SDE3FGHIM1M2RWXY/LB1 |
Departure
| Time | 2026-05-01 08:26 |
|---|---|
| Airport | O.R. Tambo International Airport (FAOR) |
Arrival
| Time | N/A |
|---|---|
| Airport | Auckland International Airport (NZAA) |
| Time | Latitude | Longitude | Altitude | Speed | Heading |
|---|---|---|---|---|---|
| 2026-05-01 07:23 | -26.13015 | 28.23390 | 5571 ft | 0 kts | 8° |
| 2026-05-01 08:15 | -26.13021 | 28.23389 | 5571 ft | 2 kts | 7° |
| 2026-05-01 08:16 | -26.13040 | 28.23386 | 5571 ft | 3 kts | 5° |
| 2026-05-01 08:16 | -26.13060 | 28.23385 | 5571 ft | 3 kts | 5° |
| 2026-05-01 08:16 | -26.13075 | 28.23383 | 5571 ft | 2 kts | 3° |
| 2026-05-01 08:16 | -26.13089 | 28.23382 | 5571 ft | 3 kts | 327° |
| 2026-05-01 08:17 | -26.13096 | 28.23388 | 5571 ft | 3 kts | 288° |
| 2026-05-01 08:17 | -26.13102 | 28.23410 | 5571 ft | 3 kts | 289° |
| 2026-05-01 08:17 | -26.13107 | 28.23426 | 5571 ft | 3 kts | 292° |
| 2026-05-01 08:17 | -26.13115 | 28.23446 | 5571 ft | 3 kts | 292° |
| 2026-05-01 08:18 | -26.13120 | 28.23461 | 5571 ft | 3 kts | 303° |
| 2026-05-01 08:18 | -26.13141 | 28.23474 | 5571 ft | 3 kts | 7° |
| 2026-05-01 08:19 | -26.13172 | 28.23470 | 5571 ft | 1 kts | 5° |
| 2026-05-01 08:19 | -26.13173 | 28.23469 | 5571 ft | 0 kts | 5° |
| 2026-05-01 08:22 | -26.13168 | 28.23470 | 5571 ft | 4 kts | 5° |
| 2026-05-01 08:22 | -26.13112 | 28.23476 | 5571 ft | 10 kts | 5° |
| 2026-05-01 08:22 | -26.13048 | 28.23482 | 5571 ft | 9 kts | 5° |
| 2026-05-01 08:22 | -26.12992 | 28.23487 | 5571 ft | 3 kts | 5° |
| 2026-05-01 08:23 | -26.12964 | 28.23490 | 5571 ft | 0 kts | 5° |
| 2026-05-01 08:23 | -26.12942 | 28.23492 | 5571 ft | 4 kts | 5° |
| 2026-05-01 08:23 | -26.14599 | 28.23447 | 5571 ft | 0 kts | 15° |
| 2026-05-01 08:24 | -26.14598 | 28.23448 | 5571 ft | 1 kts | 15° |
| 2026-05-01 08:24 | -26.14507 | 28.23476 | 5571 ft | 35 kts | 15° |
| 2026-05-01 08:25 | -26.14075 | 28.23579 | 5571 ft | 93 kts | 7° |
| 2026-05-01 08:25 | -26.13240 | 28.23675 | 5571 ft | 148 kts | 2° |
| 2026-05-01 08:25 | -26.12034 | 28.23742 | 5592 ft | 194 kts | 1° |
| 2026-05-01 08:25 | -26.10646 | 28.23846 | 6005 ft | 201 kts | 3° |
| 2026-05-01 08:26 | -26.09306 | 28.24080 | 6692 ft | 193 kts | 15° |
| 2026-05-01 08:26 | -26.08028 | 28.24586 | 6943 ft | 198 kts | 22° |
| 2026-05-01 08:26 | -26.06744 | 28.25293 | 6956 ft | 213 kts | 26° |
| 2026-05-01 08:26 | -26.05445 | 28.26179 | 7015 ft | 226 kts | 33° |
| 2026-05-01 08:27 | -26.04349 | 28.27505 | 7057 ft | 242 kts | 54° |
| 2026-05-01 08:27 | -26.03666 | 28.29285 | 7123 ft | 260 kts | 71° |
| 2026-05-01 08:27 | -26.03409 | 28.31338 | 7248 ft | 276 kts | 84° |
| 2026-05-01 08:27 | -26.03550 | 28.33532 | 7434 ft | 293 kts | 96° |
| 2026-05-01 08:28 | -26.04004 | 28.35814 | 7626 ft | 311 kts | 102° |
| 2026-05-01 08:28 | -26.04659 | 28.38159 | 7868 ft | 325 kts | 107° |
| 2026-05-01 08:28 | -26.05446 | 28.40518 | 8274 ft | 334 kts | 109° |
| 2026-05-01 08:28 | -26.06313 | 28.42948 | 8745 ft | 339 kts | 109° |
| 2026-05-01 08:29 | -26.07166 | 28.45393 | 8905 ft | 339 kts | 109° |
| 2026-05-01 08:29 | -26.08009 | 28.47856 | 8983 ft | 340 kts | 109° |
| 2026-05-01 08:29 | -26.08846 | 28.50315 | 9004 ft | 341 kts | 108° |
| 2026-05-01 08:29 | -26.09689 | 28.52788 | 9014 ft | 341 kts | 108° |
| 2026-05-01 08:30 | -26.10538 | 28.55248 | 9005 ft | 341 kts | 109° |
| 2026-05-01 08:30 | -26.11621 | 28.57600 | 9001 ft | 342 kts | 122° |
| 2026-05-01 08:30 | -26.13080 | 28.59711 | 9211 ft | 347 kts | 129° |
| 2026-05-01 08:30 | -26.14745 | 28.61675 | 9768 ft | 349 kts | 134° |
| 2026-05-01 08:31 | -26.16486 | 28.63522 | 10313 ft | 353 kts | 137° |
| 2026-05-01 08:31 | -26.18334 | 28.65410 | 10444 ft | 369 kts | 137° |
| 2026-05-01 08:31 | -26.20098 | 28.67233 | 10635 ft | 383 kts | 137° |
| 2026-05-01 08:31 | -26.22177 | 28.69422 | 10796 ft | 400 kts | 137° |
| 2026-05-01 08:32 | -26.24229 | 28.71607 | 10942 ft | 418 kts | 137° |
| 2026-05-01 08:32 | -26.26363 | 28.73891 | 11173 ft | 432 kts | 137° |
| 2026-05-01 08:32 | -26.28551 | 28.76237 | 11588 ft | 440 kts | 137° |
| 2026-05-01 08:32 | -26.30768 | 28.78621 | 12044 ft | 446 kts | 137° |
| 2026-05-01 08:33 | -26.33012 | 28.81027 | 12596 ft | 451 kts | 137° |
| 2026-05-01 08:33 | -26.35289 | 28.83463 | 13062 ft | 457 kts | 137° |
| 2026-05-01 08:33 | -26.37558 | 28.85906 | 13563 ft | 461 kts | 137° |
| 2026-05-01 08:33 | -26.39867 | 28.88373 | 14324 ft | 458 kts | 137° |
| 2026-05-01 08:34 | -26.42158 | 28.90833 | 14982 ft | 458 kts | 138° |
| 2026-05-01 08:34 | -26.44465 | 28.93320 | 15462 ft | 464 kts | 137° |
| 2026-05-01 08:34 | -26.46797 | 28.95835 | 15851 ft | 470 kts | 137° |
| 2026-05-01 08:34 | -26.49167 | 28.98393 | 16255 ft | 476 kts | 137° |
| 2026-05-01 08:35 | -26.51556 | 29.00973 | 16698 ft | 480 kts | 137° |
| 2026-05-01 08:35 | -26.53969 | 29.03575 | 17159 ft | 484 kts | 137° |
| 2026-05-01 08:35 | -26.56397 | 29.06214 | 17530 ft | 489 kts | 137° |
| 2026-05-01 08:35 | -26.58819 | 29.08897 | 17912 ft | 494 kts | 137° |
| 2026-05-01 08:36 | -26.61267 | 29.11613 | 18285 ft | 498 kts | 137° |
| 2026-05-01 08:36 | -26.63743 | 29.14361 | 18653 ft | 502 kts | 137° |
| 2026-05-01 08:36 | -26.66233 | 29.17122 | 19079 ft | 505 kts | 137° |
| 2026-05-01 08:36 | -26.68703 | 29.19861 | 19414 ft | 509 kts | 137° |
| 2026-05-01 08:37 | -26.71236 | 29.22640 | 19831 ft | 512 kts | 137° |
| 2026-05-01 08:37 | -26.73778 | 29.25449 | 20168 ft | 515 kts | 137° |
| 2026-05-01 08:37 | -26.76335 | 29.28290 | 20481 ft | 519 kts | 136° |
| 2026-05-01 08:37 | -26.78906 | 29.31148 | 20894 ft | 521 kts | 136° |
| 2026-05-01 08:38 | -26.81482 | 29.34017 | 21180 ft | 525 kts | 136° |
| 2026-05-01 08:38 | -26.84085 | 29.36918 | 21494 ft | 529 kts | 136° |
| 2026-05-01 08:38 | -26.86693 | 29.39826 | 21840 ft | 531 kts | 136° |
| 2026-05-01 08:38 | -26.89343 | 29.42722 | 22137 ft | 533 kts | 141° |
| 2026-05-01 08:39 | -26.92380 | 29.45108 | 22419 ft | 533 kts | 152° |
| 2026-05-01 08:39 | -26.95593 | 29.47052 | 22679 ft | 534 kts | 156° |
| 2026-05-01 08:39 | -26.98967 | 29.48827 | 22980 ft | 535 kts | 159° |
| 2026-05-01 08:39 | -27.02393 | 29.50459 | 23258 ft | 538 kts | 161° |
| 2026-05-01 08:40 | -27.09357 | 29.53620 | 23886 ft | 542 kts | 161° |
| 2026-05-01 08:40 | -27.12858 | 29.55228 | 24098 ft | 546 kts | 161° |
| 2026-05-01 08:40 | -27.16375 | 29.56854 | 24412 ft | 548 kts | 161° |
| 2026-05-01 08:41 | -27.19905 | 29.58495 | 24638 ft | 551 kts | 161° |
| 2026-05-01 08:41 | -27.23457 | 29.60149 | 24948 ft | 553 kts | 161° |
| 2026-05-01 08:41 | -27.26930 | 29.61757 | 25214 ft | 555 kts | 161° |
| 2026-05-01 08:41 | -27.30505 | 29.63418 | 25487 ft | 557 kts | 161° |
| 2026-05-01 08:42 | -27.34090 | 29.65089 | 25749 ft | 559 kts | 161° |
| 2026-05-01 08:42 | -27.37681 | 29.66765 | 25988 ft | 561 kts | 161° |
| 2026-05-01 08:42 | -27.41303 | 29.68458 | 26225 ft | 563 kts | 161° |
| 2026-05-01 08:42 | -27.44920 | 29.70151 | 26559 ft | 563 kts | 161° |
| 2026-05-01 08:43 | -27.48486 | 29.71822 | 26906 ft | 562 kts | 161° |
| 2026-05-01 08:43 | -27.52093 | 29.73514 | 27252 ft | 562 kts | 161° |
| 2026-05-01 08:43 | -27.55705 | 29.75209 | 27574 ft | 562 kts | 161° |
| 2026-05-01 08:43 | -27.59313 | 29.76904 | 27915 ft | 561 kts | 161° |
| 2026-05-01 08:44 | -27.62907 | 29.78593 | 28268 ft | 560 kts | 161° |
| 2026-05-01 08:44 | -27.66514 | 29.80290 | 28602 ft | 560 kts | 162° |
| 2026-05-01 08:44 | -27.70090 | 29.81973 | 28971 ft | 558 kts | 162° |
| 2026-05-01 08:44 | -27.73684 | 29.83666 | 29313 ft | 558 kts | 162° |
| 2026-05-01 08:45 | -27.77265 | 29.85354 | 29622 ft | 557 kts | 162° |
| 2026-05-01 08:45 | -27.80849 | 29.87045 | 29870 ft | 559 kts | 162° |
| 2026-05-01 08:45 | -27.84428 | 29.88734 | 30225 ft | 557 kts | 162° |
| 2026-05-01 08:45 | -27.88004 | 29.90424 | 30368 ft | 558 kts | 162° |
| 2026-05-01 08:46 | -27.91578 | 29.92113 | 30493 ft | 557 kts | 162° |
| 2026-05-01 08:46 | -27.95164 | 29.93810 | 30618 ft | 557 kts | 162° |
| 2026-05-01 08:46 | -27.98740 | 29.95502 | 30743 ft | 558 kts | 162° |
| 2026-05-01 08:46 | -28.02315 | 29.97197 | 30868 ft | 558 kts | 162° |
| 2026-05-01 08:47 | -28.05899 | 29.98896 | 30994 ft | 558 kts | 162° |
| 2026-05-01 08:47 | -28.09483 | 30.00596 | 31056 ft | 558 kts | 162° |
| 2026-05-01 08:47 | -28.16646 | 30.03998 | 31061 ft | 559 kts | 162° |
| 2026-05-01 08:48 | -28.23760 | 30.07383 | 31058 ft | 558 kts | 162° |
| 2026-05-01 08:48 | -28.30921 | 30.10794 | 31053 ft | 558 kts | 162° |
| 2026-05-01 08:49 | -28.38078 | 30.14208 | 31048 ft | 557 kts | 162° |
| 2026-05-01 08:49 | -28.45227 | 30.17624 | 31044 ft | 557 kts | 162° |
| 2026-05-01 08:50 | -28.52323 | 30.21019 | 31039 ft | 557 kts | 162° |
| 2026-05-01 08:50 | -28.59454 | 30.24436 | 31035 ft | 556 kts | 162° |
| 2026-05-01 08:51 | -28.66599 | 30.27865 | 31031 ft | 556 kts | 162° |
| 2026-05-01 08:51 | -28.73621 | 30.31240 | 31027 ft | 556 kts | 162° |
| 2026-05-01 08:52 | -28.80694 | 30.34644 | 31023 ft | 555 kts | 162° |
| 2026-05-01 08:52 | -28.87804 | 30.38071 | 31020 ft | 555 kts | 162° |
| 2026-05-01 08:53 | -28.94914 | 30.41503 | 31016 ft | 554 kts | 162° |
| 2026-05-01 08:53 | -29.02012 | 30.44935 | 31013 ft | 553 kts | 162° |
| 2026-05-01 08:54 | -29.09089 | 30.48361 | 31010 ft | 553 kts | 162° |
| 2026-05-01 08:54 | -29.16134 | 30.51778 | 31007 ft | 553 kts | 162° |
| 2026-05-01 08:55 | -29.23202 | 30.55210 | 31005 ft | 552 kts | 161° |
| 2026-05-01 08:55 | -29.30279 | 30.58652 | 31002 ft | 552 kts | 161° |
| 2026-05-01 08:56 | -29.37343 | 30.62093 | 31001 ft | 552 kts | 161° |
| 2026-05-01 08:56 | -29.44361 | 30.65516 | 30999 ft | 552 kts | 161° |
| 2026-05-01 08:57 | -29.51421 | 30.68966 | 30998 ft | 551 kts | 161° |
| 2026-05-01 08:57 | -29.58473 | 30.72416 | 30997 ft | 551 kts | 161° |
| 2026-05-01 08:58 | -29.65526 | 30.75873 | 30996 ft | 551 kts | 161° |
| 2026-05-01 08:58 | -29.72531 | 30.79311 | 30996 ft | 551 kts | 161° |
| 2026-05-01 08:59 | -29.79575 | 30.82773 | 30996 ft | 551 kts | 161° |
| 2026-05-01 08:59 | -29.86620 | 30.86242 | 30996 ft | 551 kts | 161° |
| 2026-05-01 09:00 | -29.93679 | 30.89722 | 30997 ft | 551 kts | 161° |
| 2026-05-01 09:00 | -30.00716 | 30.93197 | 30997 ft | 551 kts | 161° |
| 2026-05-01 09:01 | -30.07768 | 30.96685 | 30998 ft | 551 kts | 161° |
| 2026-05-01 09:01 | -30.14642 | 31.00090 | 30998 ft | 551 kts | 161° |
| 2026-05-01 09:02 | -30.21691 | 31.03587 | 31000 ft | 552 kts | 161° |
| 2026-05-01 09:02 | -30.28743 | 31.07091 | 31001 ft | 552 kts | 161° |
| 2026-05-01 09:03 | -30.35754 | 31.10581 | 31003 ft | 552 kts | 161° |
| 2026-05-01 09:03 | -30.42795 | 31.14091 | 30999 ft | 551 kts | 161° |
| 2026-05-01 09:04 | -30.49852 | 31.17614 | 30999 ft | 552 kts | 161° |
| 2026-05-01 09:04 | -30.56895 | 31.21136 | 30999 ft | 552 kts | 161° |
| 2026-05-01 09:05 | -30.63947 | 31.24667 | 31000 ft | 552 kts | 161° |
| 2026-05-01 09:05 | -30.70998 | 31.28205 | 31000 ft | 553 kts | 161° |
| 2026-05-01 09:06 | -30.78054 | 31.31750 | 31000 ft | 552 kts | 161° |
| 2026-05-01 09:06 | -30.85069 | 31.35280 | 30999 ft | 552 kts | 161° |
| 2026-05-01 09:07 | -30.92165 | 31.38856 | 31000 ft | 552 kts | 161° |
| 2026-05-01 09:07 | -30.99166 | 31.42391 | 31001 ft | 552 kts | 161° |
| 2026-05-01 09:08 | -31.06216 | 31.45956 | 31001 ft | 553 kts | 161° |
| 2026-05-01 09:08 | -31.13274 | 31.49531 | 31002 ft | 553 kts | 161° |
| 2026-05-01 09:09 | -31.20335 | 31.53113 | 30994 ft | 553 kts | 161° |
| 2026-05-01 09:09 | -31.27333 | 31.56669 | 31005 ft | 553 kts | 161° |
| 2026-05-01 09:10 | -31.34409 | 31.60273 | 30999 ft | 554 kts | 161° |
| 2026-05-01 09:10 | -31.41455 | 31.63863 | 31004 ft | 553 kts | 161° |
| 2026-05-01 09:11 | -31.48515 | 31.67468 | 31004 ft | 553 kts | 161° |
| 2026-05-01 09:11 | -31.55478 | 31.71030 | 31004 ft | 553 kts | 161° |
| 2026-05-01 09:12 | -31.62483 | 31.74619 | 31001 ft | 553 kts | 161° |
| 2026-05-01 09:12 | -31.69523 | 31.78232 | 31001 ft | 552 kts | 161° |
| 2026-05-01 09:13 | -31.76570 | 31.81854 | 31001 ft | 552 kts | 161° |
| 2026-05-01 09:13 | -31.83593 | 31.85470 | 31002 ft | 551 kts | 161° |
| 2026-05-01 09:14 | -31.90621 | 31.89095 | 31002 ft | 551 kts | 161° |
| 2026-05-01 09:14 | -31.97606 | 31.92703 | 30996 ft | 552 kts | 161° |
| 2026-05-01 09:15 | -32.04687 | 31.96366 | 30980 ft | 561 kts | 160° |
| 2026-05-01 09:15 | -32.11892 | 32.00102 | 30983 ft | 569 kts | 160° |
| 2026-05-01 09:16 | -32.19162 | 32.03878 | 30982 ft | 570 kts | 160° |
| 2026-05-01 09:17 | -32.30025 | 32.09531 | 30983 ft | 568 kts | 160° |
| 2026-05-01 09:17 | -32.40840 | 32.15174 | 30984 ft | 568 kts | 159° |
| 2026-05-01 09:18 | -32.51627 | 32.20818 | 30985 ft | 567 kts | 159° |
| 2026-05-01 09:19 | -32.62435 | 32.26487 | 30986 ft | 565 kts | 159° |
| 2026-05-01 09:20 | -32.71999 | 32.31516 | 30987 ft | 565 kts | 159° |
| 2026-05-01 09:21 | -32.87506 | 32.39696 | 30988 ft | 563 kts | 159° |
| 2026-05-01 09:21 | -32.96925 | 32.44679 | 30987 ft | 562 kts | 159° |
| 2026-05-01 09:22 | -33.11186 | 32.52245 | 30948 ft | 559 kts | 159° |
| 2026-05-01 09:23 | -33.21817 | 32.57902 | 30968 ft | 559 kts | 159° |
| 2026-05-01 09:24 | -33.32425 | 32.63568 | 31006 ft | 558 kts | 159° |
| 2026-05-01 09:25 | -33.46622 | 32.71174 | 30987 ft | 558 kts | 158° |
| 2026-05-01 09:26 | -33.57246 | 32.76879 | 30981 ft | 558 kts | 158° |
| 2026-05-01 09:26 | -33.67810 | 32.82566 | 30978 ft | 557 kts | 159° |
| 2026-05-01 09:27 | -33.78412 | 32.88275 | 30986 ft | 557 kts | 159° |
| 2026-05-01 09:28 | -33.85470 | 32.92101 | 30986 ft | 556 kts | 159° |
| 2026-05-01 09:28 | -33.92524 | 32.95934 | 30988 ft | 557 kts | 159° |
| 2026-05-01 09:29 | -34.03070 | 33.01700 | 30988 ft | 556 kts | 158° |
| 2026-05-01 09:30 | -34.13529 | 33.07582 | 30987 ft | 552 kts | 158° |
| 2026-05-01 09:30 | -34.23998 | 33.13485 | 30991 ft | 554 kts | 158° |
| 2026-05-01 09:31 | -34.30969 | 33.17423 | 30993 ft | 553 kts | 158° |
| 2026-05-01 09:32 | -34.41313 | 33.23229 | 30993 ft | 554 kts | 159° |
| 2026-05-01 09:32 | -34.51786 | 33.29148 | 30997 ft | 553 kts | 158° |
| 2026-05-01 09:33 | -34.58767 | 33.33107 | 30998 ft | 554 kts | 159° |
| 2026-05-01 09:34 | -34.69186 | 33.39031 | 30999 ft | 554 kts | 159° |
| 2026-05-01 09:34 | -34.79664 | 33.45005 | 31000 ft | 555 kts | 159° |
| 2026-05-01 09:35 | -34.90137 | 33.50994 | 30997 ft | 555 kts | 159° |
| 2026-05-01 09:36 | -34.97081 | 33.54974 | 30988 ft | 555 kts | 159° |
| 2026-05-01 09:36 | -35.04069 | 33.58987 | 30989 ft | 556 kts | 159° |
| 2026-05-01 09:37 | -35.11059 | 33.63008 | 30992 ft | 555 kts | 159° |
| 2026-05-01 09:37 | -35.21539 | 33.69053 | 30998 ft | 556 kts | 159° |
| 2026-05-01 09:38 | -35.32046 | 33.75130 | 30999 ft | 557 kts | 159° |
| 2026-05-01 09:39 | -35.42518 | 33.81202 | 30997 ft | 559 kts | 159° |
| 2026-05-01 09:39 | -35.49555 | 33.85296 | 30999 ft | 559 kts | 159° |
| 2026-05-01 09:40 | -35.60073 | 33.91425 | 30995 ft | 562 kts | 159° |
| 2026-05-01 09:41 | -35.67128 | 33.95551 | 31004 ft | 562 kts | 159° |
| 2026-05-01 09:41 | -35.77633 | 34.01703 | 31042 ft | 563 kts | 159° |
| 2026-05-01 09:42 | -35.84716 | 34.05854 | 31049 ft | 564 kts | 159° |
| 2026-05-01 09:43 | -35.98809 | 34.14163 | 31043 ft | 563 kts | 159° |
| 2026-05-01 09:43 | -36.05863 | 34.18326 | 31040 ft | 563 kts | 159° |
| 2026-05-01 09:44 | -36.16466 | 34.24606 | 31033 ft | 563 kts | 159° |
| 2026-05-01 09:45 | -36.23532 | 34.28796 | 31039 ft | 562 kts | 159° |
| 2026-05-01 09:45 | -36.34036 | 34.35052 | 31042 ft | 558 kts | 159° |
| 2026-05-01 09:46 | -36.41051 | 34.39239 | 31031 ft | 561 kts | 159° |
| 2026-05-01 09:46 | -36.48080 | 34.43438 | 31052 ft | 560 kts | 159° |
| 2026-05-01 09:47 | -36.55108 | 34.47647 | 31024 ft | 560 kts | 159° |
| 2026-05-01 09:47 | -36.62117 | 34.51855 | 31035 ft | 558 kts | 159° |
| 2026-05-01 09:48 | -36.69100 | 34.56055 | 31037 ft | 557 kts | 159° |
| 2026-05-01 09:48 | -36.76031 | 34.60233 | 31038 ft | 557 kts | 159° |
| 2026-05-01 09:49 | -36.83010 | 34.64447 | 31038 ft | 557 kts | 159° |
| 2026-05-01 09:49 | -36.89977 | 34.68663 | 31039 ft | 556 kts | 159° |
| 2026-05-01 09:50 | -36.96933 | 34.72881 | 31039 ft | 555 kts | 159° |
| 2026-05-01 09:50 | -37.03830 | 34.77072 | 31038 ft | 554 kts | 159° |
| 2026-05-01 09:51 | -37.10759 | 34.81291 | 31039 ft | 554 kts | 159° |
| 2026-05-01 09:51 | -37.17597 | 34.85462 | 31039 ft | 554 kts | 159° |
| 2026-05-01 09:52 | -37.24528 | 34.89700 | 31039 ft | 554 kts | 159° |
| 2026-05-01 09:52 | -37.31453 | 34.93942 | 31039 ft | 554 kts | 159° |
| 2026-05-01 09:53 | -37.38375 | 34.98191 | 31039 ft | 554 kts | 159° |
| 2026-05-01 09:53 | -37.45311 | 35.02458 | 31040 ft | 555 kts | 159° |
| 2026-05-01 09:54 | -37.52291 | 35.06760 | 31039 ft | 555 kts | 159° |
| 2026-05-01 09:54 | -37.59180 | 35.11015 | 31040 ft | 555 kts | 159° |
| 2026-05-01 09:55 | -37.66124 | 35.15313 | 31040 ft | 556 kts | 159° |
| 2026-05-01 09:55 | -37.73065 | 35.19619 | 31040 ft | 557 kts | 159° |
| 2026-05-01 09:56 | -37.80022 | 35.23943 | 31040 ft | 558 kts | 159° |
| 2026-05-01 09:56 | -37.87012 | 35.28297 | 31040 ft | 560 kts | 159° |
| 2026-05-01 09:57 | -37.93951 | 35.32627 | 31045 ft | 561 kts | 159° |
| 2026-05-01 09:57 | -38.00955 | 35.37013 | 31037 ft | 561 kts | 159° |
| 2026-05-01 09:58 | -38.07934 | 35.41386 | 31027 ft | 558 kts | 159° |
| 2026-05-01 09:58 | -38.14893 | 35.45757 | 31027 ft | 559 kts | 159° |
| 2026-05-01 09:59 | -38.21866 | 35.50147 | 31027 ft | 559 kts | 159° |
| 2026-05-01 09:59 | -38.28787 | 35.54514 | 31027 ft | 559 kts | 159° |
| 2026-05-01 10:00 | -38.35746 | 35.58914 | 31027 ft | 559 kts | 159° |
| 2026-05-01 10:00 | -38.42709 | 35.63327 | 31027 ft | 559 kts | 159° |
| 2026-05-01 10:01 | -38.49677 | 35.67752 | 31027 ft | 559 kts | 159° |
| 2026-05-01 10:01 | -38.56585 | 35.72148 | 31027 ft | 558 kts | 159° |
| 2026-05-01 10:02 | -38.63484 | 35.76546 | 31029 ft | 557 kts | 159° |
| 2026-05-01 10:02 | -38.70419 | 35.80980 | 31022 ft | 557 kts | 159° |
| 2026-05-01 10:03 | -38.77354 | 35.85398 | 31026 ft | 556 kts | 159° |
| 2026-05-01 10:03 | -38.84265 | 35.89842 | 31028 ft | 555 kts | 159° |
| 2026-05-01 10:04 | -38.91110 | 35.94257 | 31028 ft | 553 kts | 159° |
| 2026-05-01 10:04 | -38.97978 | 35.98695 | 31027 ft | 552 kts | 159° |
| 2026-05-01 10:05 | -39.04534 | 36.03963 | 31025 ft | 560 kts | 150° |
| 2026-05-01 10:05 | -39.10853 | 36.09933 | 31147 ft | 566 kts | 148° |
| 2026-05-01 10:06 | -39.14011 | 36.12947 | 31272 ft | 568 kts | 148° |
| 2026-05-01 10:06 | -39.17197 | 36.15964 | 31397 ft | 567 kts | 148° |
| 2026-05-01 10:06 | -39.20378 | 36.18964 | 31521 ft | 567 kts | 148° |
| 2026-05-01 10:06 | -39.23533 | 36.21934 | 31645 ft | 568 kts | 149° |
| 2026-05-01 10:07 | -39.26718 | 36.24931 | 31770 ft | 568 kts | 149° |
| 2026-05-01 10:07 | -39.29924 | 36.27923 | 31895 ft | 568 kts | 149° |
| 2026-05-01 10:07 | -39.33131 | 36.30902 | 32010 ft | 568 kts | 149° |
| 2026-05-01 10:07 | -39.36341 | 36.33896 | 32024 ft | 569 kts | 149° |
| 2026-05-01 10:08 | -39.45962 | 36.42920 | 32048 ft | 569 kts | 149° |
| 2026-05-01 10:09 | -39.52332 | 36.48929 | 32008 ft | 571 kts | 149° |
| 2026-05-01 10:09 | -39.58725 | 36.54971 | 32028 ft | 568 kts | 149° |
| 2026-05-01 10:10 | -39.65120 | 36.61025 | 32029 ft | 569 kts | 149° |
| 2026-05-01 10:10 | -39.74715 | 36.70136 | 32029 ft | 570 kts | 149° |
| 2026-05-01 10:11 | -39.81116 | 36.76232 | 32029 ft | 570 kts | 149° |
| 2026-05-01 10:11 | -39.87463 | 36.82294 | 32028 ft | 570 kts | 149° |
| 2026-05-01 10:12 | -39.93810 | 36.88369 | 32029 ft | 571 kts | 149° |
| 2026-05-01 10:13 | -40.03407 | 36.97584 | 32029 ft | 569 kts | 149° |
| 2026-05-01 10:13 | -40.09794 | 37.03733 | 32029 ft | 565 kts | 149° |
| 2026-05-01 10:14 | -40.19291 | 37.12904 | 32029 ft | 567 kts | 149° |
| 2026-05-01 10:14 | -40.25590 | 37.19006 | 32034 ft | 567 kts | 149° |
| 2026-05-01 10:15 | -40.31933 | 37.25164 | 32009 ft | 568 kts | 149° |
| 2026-05-01 10:15 | -40.38283 | 37.31344 | 32009 ft | 568 kts | 149° |
| 2026-05-01 10:16 | -40.44618 | 37.37525 | 32007 ft | 568 kts | 149° |
| 2026-05-01 10:17 | -40.54081 | 37.46784 | 32010 ft | 568 kts | 149° |
| 2026-05-01 10:17 | -40.63572 | 37.56106 | 32009 ft | 568 kts | 149° |
| 2026-05-01 10:18 | -40.73061 | 37.65459 | 32009 ft | 567 kts | 149° |
| 2026-05-01 10:19 | -40.79370 | 37.71696 | 32010 ft | 566 kts | 149° |
| 2026-05-01 10:19 | -40.85631 | 37.77901 | 32010 ft | 566 kts | 148° |
| 2026-05-01 10:20 | -40.95063 | 37.87276 | 32011 ft | 565 kts | 148° |
| 2026-05-01 10:20 | -41.01332 | 37.93528 | 32010 ft | 563 kts | 148° |
| 2026-05-01 10:21 | -41.10622 | 38.02820 | 32009 ft | 563 kts | 148° |
| 2026-05-01 10:22 | -41.19986 | 38.12218 | 32011 ft | 564 kts | 148° |
| 2026-05-01 10:23 | -41.29349 | 38.21651 | 32011 ft | 563 kts | 148° |
| 2026-05-01 10:23 | -41.38692 | 38.31099 | 32011 ft | 561 kts | 148° |
| 2026-05-01 10:24 | -41.51058 | 38.43658 | 32012 ft | 561 kts | 148° |
| 2026-05-01 10:25 | -41.63452 | 38.56307 | 32011 ft | 560 kts | 148° |
| 2026-05-01 10:26 | -41.69648 | 38.62654 | 32012 ft | 561 kts | 148° |
| 2026-05-01 10:27 | -41.81993 | 38.75349 | 32012 ft | 561 kts | 148° |
| 2026-05-01 10:28 | -41.91269 | 38.84929 | 32013 ft | 561 kts | 148° |
| 2026-05-01 10:28 | -42.00561 | 38.94561 | 32013 ft | 563 kts | 148° |
| 2026-05-01 10:29 | -42.09731 | 39.04102 | 32012 ft | 555 kts | 148° |
| 2026-05-01 10:30 | -42.20886 | 39.15759 | 32016 ft | 558 kts | 148° |
| 2026-05-01 10:31 | -42.22583 | 39.17536 | 32016 ft | 558 kts | 148° |
| 2026-05-01 10:32 | -42.28351 | 39.23588 | 32017 ft | 558 kts | 148° |
| 2026-05-01 10:33 | -42.40569 | 39.36456 | 32015 ft | 558 kts | 148° |
| 2026-05-01 10:34 | -42.49769 | 39.46190 | 32021 ft | 560 kts | 148° |
| 2026-05-01 10:34 | -42.55902 | 39.52698 | 32018 ft | 560 kts | 148° |
| 2026-05-01 10:35 | -42.65086 | 39.62477 | 32017 ft | 559 kts | 148° |
| 2026-05-01 10:35 | -42.71151 | 39.68955 | 32018 ft | 558 kts | 148° |
| 2026-05-01 10:36 | -42.79367 | 39.77710 | 32019 ft | 557 kts | 148° |
| 2026-05-01 10:37 | -42.85483 | 39.84290 | 32018 ft | 558 kts | 148° |
| 2026-05-01 10:37 | -42.88151 | 39.87173 | 32018 ft | 558 kts | 148° |
| 2026-05-01 10:38 | -42.92426 | 39.91797 | 32018 ft | 559 kts | 148° |
| 2026-05-01 10:38 | -42.98521 | 39.98394 | 32019 ft | 558 kts | 148° |
| 2026-05-01 10:39 | -43.04811 | 40.04512 | 32020 ft | 554 kts | 154° |
| 2026-05-01 10:39 | -43.11239 | 40.10213 | 32019 ft | 553 kts | 154° |
| 2026-05-01 10:40 | -43.17673 | 40.15985 | 32019 ft | 552 kts | 154° |
| 2026-05-01 10:40 | -43.24082 | 40.21788 | 32019 ft | 552 kts | 154° |
| 2026-05-01 10:41 | -43.30481 | 40.27591 | 32020 ft | 552 kts | 154° |
| 2026-05-01 10:42 | -43.40029 | 40.36210 | 32019 ft | 550 kts | 154° |
| 2026-05-01 10:42 | -43.46374 | 40.41988 | 32020 ft | 551 kts | 154° |
| 2026-05-01 10:43 | -43.52756 | 40.47824 | 32020 ft | 550 kts | 154° |
| 2026-05-01 10:43 | -43.59131 | 40.53671 | 32020 ft | 550 kts | 154° |
| 2026-05-01 10:44 | -43.65500 | 40.59528 | 32020 ft | 550 kts | 154° |
| 2026-05-01 10:44 | -43.71871 | 40.65403 | 32021 ft | 551 kts | 154° |
| 2026-05-01 10:45 | -43.78209 | 40.71262 | 32022 ft | 551 kts | 154° |
| 2026-05-01 10:45 | -43.84578 | 40.77166 | 32022 ft | 551 kts | 154° |
| 2026-05-01 10:46 | -43.90945 | 40.83083 | 32022 ft | 551 kts | 154° |
| 2026-05-01 10:46 | -43.97300 | 40.89005 | 32023 ft | 551 kts | 154° |
| 2026-05-01 10:47 | -44.03655 | 40.94943 | 32022 ft | 549 kts | 154° |
| 2026-05-01 10:47 | -44.09938 | 41.00827 | 32023 ft | 547 kts | 154° |
| 2026-05-01 10:48 | -44.16246 | 41.06751 | 32023 ft | 547 kts | 154° |
| 2026-05-01 10:48 | -44.22547 | 41.12685 | 32023 ft | 547 kts | 154° |
| 2026-05-01 10:49 | -44.28844 | 41.18629 | 32023 ft | 546 kts | 154° |
| 2026-05-01 10:49 | -44.35126 | 41.24576 | 32023 ft | 546 kts | 154° |
| 2026-05-01 10:50 | -44.41417 | 41.30546 | 32024 ft | 546 kts | 154° |
| 2026-05-01 10:50 | -44.47664 | 41.36490 | 32024 ft | 547 kts | 154° |
| 2026-05-01 10:51 | -44.53947 | 41.42486 | 32024 ft | 547 kts | 154° |
| 2026-05-01 10:51 | -44.60122 | 41.48392 | 32024 ft | 547 kts | 154° |
| 2026-05-01 10:52 | -44.66402 | 41.54416 | 32025 ft | 547 kts | 154° |
| 2026-05-01 10:52 | -44.72681 | 41.60454 | 32025 ft | 547 kts | 154° |
| 2026-05-01 10:53 | -44.78911 | 41.66462 | 32025 ft | 546 kts | 154° |
| 2026-05-01 10:53 | -44.85177 | 41.72521 | 32025 ft | 547 kts | 154° |
| 2026-05-01 10:54 | -44.91446 | 41.78598 | 32026 ft | 547 kts | 154° |
| 2026-05-01 10:54 | -44.97709 | 41.84686 | 32025 ft | 546 kts | 154° |
| 2026-05-01 10:55 | -45.03967 | 41.90786 | 32027 ft | 547 kts | 154° |
| 2026-05-01 10:55 | -45.10173 | 41.96851 | 32025 ft | 545 kts | 154° |
| 2026-05-01 10:56 | -45.16403 | 42.02957 | 32027 ft | 545 kts | 154° |
| 2026-05-01 10:56 | -45.22651 | 42.09097 | 32026 ft | 546 kts | 154° |
| 2026-05-01 10:57 | -45.28893 | 42.15247 | 32027 ft | 547 kts | 154° |
| 2026-05-01 10:57 | -45.35089 | 42.21368 | 32026 ft | 545 kts | 154° |
| 2026-05-01 10:58 | -45.41301 | 42.27523 | 32027 ft | 544 kts | 154° |
| 2026-05-01 10:58 | -45.47517 | 42.33698 | 32027 ft | 545 kts | 154° |
| 2026-05-01 10:59 | -45.53729 | 42.39886 | 32027 ft | 545 kts | 154° |
| 2026-05-01 10:59 | -45.59934 | 42.46084 | 32027 ft | 545 kts | 154° |
| 2026-05-01 11:00 | -45.66102 | 42.52263 | 32028 ft | 545 kts | 154° |
| 2026-05-01 11:00 | -45.72308 | 42.58495 | 32028 ft | 545 kts | 153° |
| 2026-05-01 11:01 | -45.78503 | 42.64735 | 32028 ft | 545 kts | 153° |
| 2026-05-01 11:01 | -45.84663 | 42.70957 | 32029 ft | 545 kts | 153° |
| 2026-05-01 11:02 | -45.89807 | 42.76165 | 32028 ft | 545 kts | 153° |
| 2026-05-01 11:02 | -45.97016 | 42.83484 | 32029 ft | 546 kts | 153° |
| 2026-05-01 11:03 | -46.03211 | 42.89793 | 32028 ft | 544 kts | 153° |
| 2026-05-01 11:03 | -46.09366 | 42.96079 | 32029 ft | 542 kts | 153° |
| 2026-05-01 11:04 | -46.14476 | 43.01312 | 32030 ft | 543 kts | 153° |
| 2026-05-01 11:04 | -46.20637 | 43.07636 | 32030 ft | 543 kts | 153° |
| 2026-05-01 11:05 | -46.27790 | 43.15002 | 32030 ft | 543 kts | 153° |
| 2026-05-01 11:05 | -46.32939 | 43.20318 | 32030 ft | 543 kts | 153° |
| 2026-05-01 11:06 | -46.40078 | 43.27710 | 32030 ft | 542 kts | 153° |
| 2026-05-01 11:06 | -46.45216 | 43.33045 | 32030 ft | 542 kts | 153° |
| 2026-05-01 11:07 | -46.54396 | 43.42610 | 32030 ft | 542 kts | 153° |
| 2026-05-01 11:07 | -46.60528 | 43.49020 | 32031 ft | 542 kts | 153° |
| 2026-05-01 11:08 | -46.66647 | 43.55437 | 32031 ft | 542 kts | 153° |
| 2026-05-01 11:09 | -46.75777 | 43.65043 | 32031 ft | 542 kts | 153° |
| 2026-05-01 11:09 | -46.81884 | 43.71492 | 32032 ft | 541 kts | 153° |
| 2026-05-01 11:10 | -46.91009 | 43.81163 | 32032 ft | 540 kts | 153° |
| 2026-05-01 11:10 | -46.97052 | 43.87590 | 32032 ft | 540 kts | 153° |
| 2026-05-01 11:11 | -47.03108 | 43.94050 | 32032 ft | 538 kts | 153° |
| 2026-05-01 11:11 | -47.09117 | 44.00478 | 32032 ft | 538 kts | 153° |
| 2026-05-01 11:12 | -47.15159 | 44.06959 | 32033 ft | 538 kts | 153° |
| 2026-05-01 11:12 | -47.21196 | 44.13454 | 32033 ft | 538 kts | 153° |
| 2026-05-01 11:13 | -47.27188 | 44.19919 | 32034 ft | 537 kts | 153° |
| 2026-05-01 11:13 | -47.33203 | 44.26427 | 32033 ft | 535 kts | 153° |
| 2026-05-01 11:14 | -47.39204 | 44.32940 | 32034 ft | 536 kts | 153° |
| 2026-05-01 11:14 | -47.45198 | 44.39463 | 32034 ft | 536 kts | 152° |
| 2026-05-01 11:15 | -47.51201 | 44.46016 | 32009 ft | 536 kts | 152° |
| 2026-05-01 11:15 | -47.57147 | 44.52524 | 32009 ft | 535 kts | 152° |
| 2026-05-01 11:16 | -47.63134 | 44.59097 | 32010 ft | 536 kts | 152° |
| 2026-05-01 11:16 | -47.69124 | 44.65693 | 32010 ft | 536 kts | 152° |
| 2026-05-01 11:17 | -47.75114 | 44.72294 | 32010 ft | 536 kts | 153° |
| 2026-05-01 11:17 | -47.81077 | 44.78853 | 32010 ft | 536 kts | 152° |
| 2026-05-01 11:18 | -47.87053 | 44.85511 | 32010 ft | 537 kts | 152° |
| 2026-05-01 11:18 | -47.93028 | 44.92192 | 32010 ft | 537 kts | 152° |
| 2026-05-01 11:19 | -47.99007 | 44.98885 | 32011 ft | 538 kts | 152° |
| 2026-05-01 11:19 | -48.04714 | 45.06048 | 32012 ft | 537 kts | 147° |
| 2026-05-01 11:20 | -48.10230 | 45.13582 | 32012 ft | 539 kts | 146° |
| 2026-05-01 11:20 | -48.15786 | 45.21143 | 32012 ft | 540 kts | 146° |
| 2026-05-01 11:21 | -48.21354 | 45.28702 | 32012 ft | 540 kts | 146° |
| 2026-05-01 11:21 | -48.26887 | 45.36192 | 32012 ft | 539 kts | 147° |
| 2026-05-01 11:22 | -48.32461 | 45.43640 | 32012 ft | 540 kts | 147° |
| 2026-05-01 11:22 | -48.38046 | 45.51182 | 32013 ft | 540 kts | 146° |
| 2026-05-01 11:23 | -48.43625 | 45.58763 | 32013 ft | 540 kts | 146° |
| 2026-05-01 11:23 | -48.49196 | 45.66364 | 32013 ft | 540 kts | 146° |
| 2026-05-01 11:24 | -48.54762 | 45.73984 | 32013 ft | 541 kts | 146° |
| 2026-05-01 11:25 | -48.63077 | 45.85414 | 32014 ft | 541 kts | 146° |
| 2026-05-01 11:25 | -48.71392 | 45.96899 | 32014 ft | 539 kts | 146° |
| 2026-05-01 11:26 | -48.79673 | 46.08392 | 32015 ft | 539 kts | 146° |
| 2026-05-01 11:27 | -48.85204 | 46.16096 | 32015 ft | 539 kts | 146° |
| 2026-05-01 11:27 | -48.90683 | 46.23754 | 32015 ft | 537 kts | 146° |
| 2026-05-01 11:28 | -48.96173 | 46.31449 | 32016 ft | 536 kts | 146° |
| 2026-05-01 11:28 | -49.01646 | 46.39146 | 32016 ft | 536 kts | 146° |
| 2026-05-01 11:29 | -49.09844 | 46.50719 | 32016 ft | 534 kts | 145° |
| 2026-05-01 11:30 | -49.17975 | 46.62252 | 32017 ft | 534 kts | 145° |
| 2026-05-01 11:30 | -49.23401 | 46.69979 | 32017 ft | 533 kts | 145° |
| 2026-05-01 11:31 | -49.28829 | 46.77733 | 32017 ft | 533 kts | 145° |
| 2026-05-01 11:31 | -49.34101 | 46.85287 | 32017 ft | 533 kts | 145° |
| 2026-05-01 11:32 | -49.39466 | 46.92999 | 32017 ft | 533 kts | 145° |
| 2026-05-01 11:32 | -49.44873 | 47.00795 | 32056 ft | 533 kts | 145° |
| 2026-05-01 11:33 | -49.50278 | 47.08614 | 32063 ft | 533 kts | 144° |
| 2026-05-01 11:33 | -49.55665 | 47.16431 | 32063 ft | 533 kts | 144° |
| 2026-05-01 11:34 | -49.61017 | 47.24223 | 32064 ft | 533 kts | 144° |
| 2026-05-01 11:34 | -49.66400 | 47.32084 | 32065 ft | 532 kts | 144° |
| 2026-05-01 11:35 | -49.71752 | 47.39926 | 32064 ft | 530 kts | 144° |
| 2026-05-01 11:35 | -49.77105 | 47.47793 | 32065 ft | 530 kts | 144° |
| 2026-05-01 11:36 | -49.82451 | 47.55675 | 32065 ft | 531 kts | 144° |
| 2026-05-01 11:36 | -49.87790 | 47.63573 | 32066 ft | 530 kts | 144° |
| 2026-05-01 11:37 | -49.93071 | 47.71410 | 32065 ft | 528 kts | 144° |
| 2026-05-01 11:37 | -49.98374 | 47.79304 | 32066 ft | 529 kts | 144° |
| 2026-05-01 11:38 | -50.03674 | 47.87220 | 32066 ft | 528 kts | 143° |
| 2026-05-01 11:38 | -50.08975 | 47.95164 | 32065 ft | 528 kts | 143° |
| 2026-05-01 11:39 | -50.14224 | 48.03053 | 32066 ft | 529 kts | 143° |
| 2026-05-01 11:39 | -50.19517 | 48.11035 | 32066 ft | 529 kts | 143° |
| 2026-05-01 11:40 | -50.24794 | 48.19019 | 32066 ft | 529 kts | 143° |
| 2026-05-01 11:40 | -50.30071 | 48.27030 | 32067 ft | 528 kts | 143° |
| 2026-05-01 11:41 | -50.35299 | 48.34991 | 32067 ft | 528 kts | 143° |
| 2026-05-01 11:41 | -50.40530 | 48.42982 | 32066 ft | 527 kts | 143° |
| 2026-05-01 11:42 | -50.45769 | 48.51012 | 32067 ft | 527 kts | 143° |
| 2026-05-01 11:42 | -50.51002 | 48.59060 | 32067 ft | 527 kts | 143° |
| 2026-05-01 11:43 | -50.56230 | 48.67127 | 32068 ft | 527 kts | 143° |
| 2026-05-01 11:43 | -50.61417 | 48.75155 | 32068 ft | 527 kts | 143° |
| 2026-05-01 11:44 | -50.69242 | 48.87317 | 32069 ft | 526 kts | 142° |
| 2026-05-01 11:44 | -50.74448 | 48.95443 | 32069 ft | 527 kts | 142° |
| 2026-05-01 11:45 | -50.79659 | 49.03601 | 32069 ft | 527 kts | 142° |
| 2026-05-01 11:45 | -50.84829 | 49.11725 | 32069 ft | 528 kts | 142° |
| 2026-05-01 11:46 | -50.90033 | 49.19928 | 32069 ft | 528 kts | 142° |
| 2026-05-01 11:46 | -50.95230 | 49.28148 | 32069 ft | 527 kts | 142° |
| 2026-05-01 11:47 | -51.00415 | 49.36376 | 32071 ft | 527 kts | 142° |
| 2026-05-01 11:47 | -51.05594 | 49.44622 | 32070 ft | 526 kts | 142° |
| 2026-05-01 11:48 | -51.10751 | 49.52861 | 32071 ft | 526 kts | 142° |
| 2026-05-01 11:48 | -51.15879 | 49.61081 | 32071 ft | 526 kts | 141° |
| 2026-05-01 11:49 | -51.21021 | 49.69351 | 32071 ft | 526 kts | 141° |
| 2026-05-01 11:49 | -51.26166 | 49.77653 | 32071 ft | 526 kts | 141° |
| 2026-05-01 11:50 | -51.31302 | 49.85970 | 32071 ft | 525 kts | 141° |
| 2026-05-01 11:50 | -51.36414 | 49.94275 | 32072 ft | 524 kts | 141° |
| 2026-05-01 11:51 | -51.41484 | 50.02540 | 32071 ft | 524 kts | 141° |
| 2026-05-01 11:51 | -51.46553 | 50.10831 | 32072 ft | 526 kts | 141° |
| 2026-05-01 11:52 | -51.51662 | 50.19217 | 32072 ft | 525 kts | 141° |
| 2026-05-01 11:52 | -51.56731 | 50.27564 | 32072 ft | 525 kts | 140° |
| 2026-05-01 11:53 | -51.61821 | 50.35976 | 32073 ft | 525 kts | 140° |
| 2026-05-01 11:53 | -51.66909 | 50.44412 | 32073 ft | 525 kts | 140° |
| 2026-05-01 11:54 | -51.71994 | 50.52873 | 32073 ft | 525 kts | 140° |
| 2026-05-01 11:54 | -51.77064 | 50.61338 | 32073 ft | 525 kts | 140° |
| 2026-05-01 11:55 | -51.82157 | 50.69770 | 32074 ft | 526 kts | 140° |
| 2026-05-01 11:55 | -51.87230 | 50.78317 | 32074 ft | 527 kts | 140° |
| 2026-05-01 11:56 | -51.92301 | 50.86913 | 32074 ft | 528 kts | 140° |
| 2026-05-01 11:56 | -51.97332 | 50.95461 | 32075 ft | 529 kts | 140° |
| 2026-05-01 11:57 | -52.02484 | 51.03963 | 32075 ft | 526 kts | 142° |
| 2026-05-01 11:57 | -52.07801 | 51.12003 | 32075 ft | 521 kts | 143° |
| 2026-05-01 11:58 | -52.13099 | 51.20065 | 32075 ft | 523 kts | 142° |
| 2026-05-01 11:59 | -52.20999 | 51.32225 | 32075 ft | 523 kts | 142° |
| 2026-05-01 11:59 | -52.26292 | 51.40391 | 32077 ft | 523 kts | 143° |
| 2026-05-01 12:00 | -52.34284 | 51.52583 | 32077 ft | 524 kts | 142° |
| 2026-05-01 12:01 | -52.42225 | 51.64883 | 32077 ft | 525 kts | 142° |
| 2026-05-01 12:01 | -52.47403 | 51.72955 | 32077 ft | 525 kts | 142° |
| 2026-05-01 12:02 | -52.52684 | 51.81220 | 32078 ft | 524 kts | 142° |
| 2026-05-01 12:02 | -52.57957 | 51.89504 | 32078 ft | 525 kts | 142° |
| 2026-05-01 12:03 | -52.63223 | 51.97806 | 32078 ft | 525 kts | 142° |
| 2026-05-01 12:03 | -52.68489 | 52.06138 | 32078 ft | 525 kts | 141° |
| 2026-05-01 12:04 | -52.73757 | 52.14504 | 32079 ft | 526 kts | 141° |
| 2026-05-01 12:04 | -52.78988 | 52.22838 | 32078 ft | 525 kts | 141° |
| 2026-05-01 12:05 | -52.84232 | 52.31224 | 32079 ft | 525 kts | 141° |
| 2026-05-01 12:05 | -52.92086 | 52.43838 | 32080 ft | 525 kts | 141° |
| 2026-05-01 12:06 | -52.97317 | 52.52279 | 32080 ft | 524 kts | 141° |
| 2026-05-01 12:06 | -53.02542 | 52.60737 | 32080 ft | 524 kts | 141° |
| 2026-05-01 12:07 | -53.07719 | 52.69149 | 32081 ft | 524 kts | 140° |
| 2026-05-01 12:07 | -53.12921 | 52.77632 | 32080 ft | 524 kts | 140° |
| 2026-05-01 12:08 | -53.18125 | 52.86149 | 32082 ft | 525 kts | 140° |
| 2026-05-01 12:08 | -53.23317 | 52.94676 | 32081 ft | 524 kts | 140° |
| 2026-05-01 12:09 | -53.28509 | 53.03234 | 32081 ft | 524 kts | 140° |
| 2026-05-01 12:09 | -53.33656 | 53.11749 | 32082 ft | 524 kts | 140° |
| 2026-05-01 12:10 | -53.41427 | 53.24663 | 32082 ft | 524 kts | 139° |
| 2026-05-01 12:11 | -53.49181 | 53.37617 | 32083 ft | 525 kts | 139° |
| 2026-05-01 12:11 | -53.54299 | 53.46207 | 32083 ft | 524 kts | 139° |
| 2026-05-01 12:12 | -53.59417 | 53.54830 | 32084 ft | 525 kts | 139° |
| 2026-05-01 12:12 | -53.64568 | 53.63538 | 32083 ft | 525 kts | 139° |
| 2026-05-01 12:13 | -53.69716 | 53.72274 | 32084 ft | 525 kts | 139° |
| 2026-05-01 12:13 | -53.74857 | 53.81030 | 32084 ft | 525 kts | 138° |
| 2026-05-01 12:14 | -53.79993 | 53.89810 | 32084 ft | 525 kts | 138° |
| 2026-05-01 12:14 | -53.85092 | 53.98560 | 32086 ft | 525 kts | 138° |
| 2026-05-01 12:15 | -53.90188 | 54.07341 | 32089 ft | 517 kts | 139° |
| 2026-05-01 12:15 | -53.95211 | 54.16021 | 32090 ft | 516 kts | 139° |
| 2026-05-01 12:16 | -54.00246 | 54.24754 | 32090 ft | 517 kts | 139° |
| 2026-05-01 12:16 | -54.05268 | 54.33496 | 32089 ft | 517 kts | 139° |
| 2026-05-01 12:17 | -54.10258 | 54.42217 | 32061 ft | 517 kts | 139° |
| 2026-05-01 12:17 | -54.15272 | 54.51012 | 32060 ft | 517 kts | 139° |
| 2026-05-01 12:18 | -54.20278 | 54.59824 | 32060 ft | 517 kts | 139° |
| 2026-05-01 12:18 | -54.25282 | 54.68667 | 32060 ft | 518 kts | 138° |
| 2026-05-01 12:19 | -54.30246 | 54.77472 | 32060 ft | 517 kts | 138° |
| 2026-05-01 12:19 | -54.35236 | 54.86356 | 32060 ft | 517 kts | 138° |
| 2026-05-01 12:20 | -54.40224 | 54.95269 | 32061 ft | 518 kts | 137° |
| 2026-05-01 12:20 | -54.45209 | 55.04210 | 32061 ft | 518 kts | 137° |
| 2026-05-01 12:21 | -54.50190 | 55.13179 | 32061 ft | 518 kts | 137° |
| 2026-05-01 12:21 | -54.55112 | 55.22075 | 32061 ft | 519 kts | 137° |
| 2026-05-01 12:22 | -54.60060 | 55.31049 | 32062 ft | 519 kts | 137° |
| 2026-05-01 12:22 | -54.65026 | 55.40092 | 32062 ft | 519 kts | 137° |
| 2026-05-01 12:23 | -54.69984 | 55.49154 | 32062 ft | 520 kts | 137° |
| 2026-05-01 12:23 | -54.74947 | 55.58260 | 32062 ft | 519 kts | 136° |
| 2026-05-01 12:24 | -54.79880 | 55.67346 | 32063 ft | 520 kts | 136° |
| 2026-05-01 12:24 | -54.84817 | 55.76475 | 32063 ft | 519 kts | 136° |
| 2026-05-01 12:25 | -54.92219 | 55.90227 | 32063 ft | 519 kts | 136° |
| 2026-05-01 12:26 | -54.97110 | 55.99356 | 32063 ft | 519 kts | 136° |
| 2026-05-01 12:26 | -55.04485 | 56.13188 | 32037 ft | 520 kts | 135° |
| 2026-05-01 12:27 | -55.11849 | 56.27083 | 32031 ft | 519 kts | 135° |
| 2026-05-01 12:28 | -55.19149 | 56.40936 | 32031 ft | 518 kts | 135° |
| 2026-05-01 12:29 | -55.26460 | 56.54891 | 32031 ft | 518 kts | 135° |
| 2026-05-01 12:29 | -55.33752 | 56.68890 | 32032 ft | 518 kts | 134° |
| 2026-05-01 12:30 | -55.40999 | 56.82888 | 32032 ft | 518 kts | 134° |
| 2026-05-01 12:31 | -55.45844 | 56.92292 | 32032 ft | 519 kts | 134° |
| 2026-05-01 12:31 | -55.50638 | 57.01631 | 32032 ft | 518 kts | 134° |
| 2026-05-01 12:32 | -55.55462 | 57.11068 | 32032 ft | 518 kts | 134° |
| 2026-05-01 12:32 | -55.62667 | 57.25233 | 32032 ft | 519 kts | 134° |
| 2026-05-01 12:33 | -55.67474 | 57.34731 | 32032 ft | 518 kts | 133° |
| 2026-05-01 12:33 | -55.72281 | 57.44264 | 32032 ft | 518 kts | 133° |
| 2026-05-01 12:34 | -55.77076 | 57.53814 | 32032 ft | 518 kts | 133° |
| 2026-05-01 12:34 | -55.81896 | 57.63326 | 32032 ft | 517 kts | 133° |
| 2026-05-01 12:35 | -55.86664 | 57.72896 | 32030 ft | 517 kts | 133° |
| 2026-05-01 12:35 | -55.91383 | 57.82464 | 32031 ft | 517 kts | 132° |
| 2026-05-01 12:36 | -55.96121 | 57.92100 | 32031 ft | 517 kts | 132° |
| 2026-05-01 12:36 | -56.00931 | 58.01644 | 32108 ft | 516 kts | 135° |
| 2026-05-01 12:37 | -56.03494 | 58.06159 | 32235 ft | 516 kts | 137° |
| 2026-05-01 12:37 | -56.06107 | 58.10560 | 32360 ft | 516 kts | 138° |
| 2026-05-01 12:37 | -56.08722 | 58.14946 | 32484 ft | 516 kts | 138° |
| 2026-05-01 12:37 | -56.11331 | 58.19360 | 32609 ft | 516 kts | 138° |
| 2026-05-01 12:38 | -56.13904 | 58.23745 | 32732 ft | 516 kts | 137° |
| 2026-05-01 12:38 | -56.16497 | 58.28188 | 32858 ft | 516 kts | 137° |
| 2026-05-01 12:38 | -56.19089 | 58.32644 | 32982 ft | 516 kts | 137° |
| 2026-05-01 12:38 | -56.21675 | 58.37104 | 33107 ft | 516 kts | 137° |
| 2026-05-01 12:39 | -56.24267 | 58.41588 | 33233 ft | 517 kts | 137° |
| 2026-05-01 12:39 | -56.26876 | 58.46033 | 33358 ft | 517 kts | 138° |
| 2026-05-01 12:39 | -56.29491 | 58.50446 | 33482 ft | 516 kts | 138° |
| 2026-05-01 12:39 | -56.32099 | 58.54888 | 33607 ft | 516 kts | 137° |
| 2026-05-01 12:40 | -56.34698 | 58.59345 | 33732 ft | 516 kts | 137° |
| 2026-05-01 12:40 | -56.37299 | 58.63831 | 33857 ft | 516 kts | 137° |
| 2026-05-01 12:40 | -56.39857 | 58.68259 | 33980 ft | 516 kts | 137° |
| 2026-05-01 12:40 | -56.42441 | 58.72745 | 34005 ft | 517 kts | 137° |
| 2026-05-01 12:41 | -56.47635 | 58.81802 | 34013 ft | 519 kts | 137° |
| 2026-05-01 12:41 | -56.52778 | 58.90810 | 34012 ft | 519 kts | 137° |
| 2026-05-01 12:42 | -56.57960 | 58.99924 | 34012 ft | 518 kts | 136° |
| 2026-05-01 12:42 | -56.63085 | 59.08976 | 34013 ft | 518 kts | 136° |
| 2026-05-01 12:43 | -56.68241 | 59.18118 | 34012 ft | 518 kts | 136° |
| 2026-05-01 12:43 | -56.73394 | 59.27293 | 34013 ft | 518 kts | 136° |
| 2026-05-01 12:44 | -56.78542 | 59.36496 | 34012 ft | 518 kts | 136° |
| 2026-05-01 12:45 | -56.88817 | 59.54976 | 34018 ft | 518 kts | 136° |
| 2026-05-01 12:45 | -56.93909 | 59.64190 | 34017 ft | 517 kts | 136° |
| 2026-05-01 12:46 | -56.99016 | 59.73471 | 34018 ft | 518 kts | 135° |
| 2026-05-01 12:46 | -57.04121 | 59.82785 | 34017 ft | 517 kts | 135° |
| 2026-05-01 12:47 | -57.09217 | 59.92120 | 34018 ft | 517 kts | 135° |
| 2026-05-01 12:47 | -57.14297 | 60.01466 | 34018 ft | 516 kts | 135° |
| 2026-05-01 12:48 | -57.19337 | 60.10775 | 34018 ft | 517 kts | 135° |
| 2026-05-01 12:48 | -57.24414 | 60.20191 | 34018 ft | 517 kts | 135° |
| 2026-05-01 12:49 | -57.29470 | 60.29608 | 34018 ft | 516 kts | 135° |
| 2026-05-01 12:49 | -57.34515 | 60.39041 | 34018 ft | 516 kts | 134° |
| 2026-05-01 12:50 | -57.39531 | 60.48462 | 34018 ft | 516 kts | 134° |
| 2026-05-01 12:50 | -57.44558 | 60.57941 | 34008 ft | 516 kts | 134° |
| 2026-05-01 12:51 | -57.49483 | 60.67265 | 34004 ft | 516 kts | 134° |
| 2026-05-01 12:52 | -57.57044 | 60.81658 | 34004 ft | 516 kts | 134° |
| 2026-05-01 12:52 | -57.64530 | 60.95997 | 34004 ft | 516 kts | 134° |
| 2026-05-01 12:53 | -57.72016 | 61.10426 | 34004 ft | 516 kts | 134° |
| 2026-05-01 12:54 | -57.77007 | 61.20095 | 34004 ft | 516 kts | 133° |
| 2026-05-01 12:54 | -57.84474 | 61.34643 | 34004 ft | 516 kts | 133° |
| 2026-05-01 12:55 | -57.91882 | 61.49165 | 34004 ft | 515 kts | 133° |
| 2026-05-01 12:56 | -57.96837 | 61.58931 | 34004 ft | 515 kts | 133° |
| 2026-05-01 12:56 | -58.01772 | 61.68699 | 34004 ft | 515 kts | 133° |
| 2026-05-01 12:57 | -58.06713 | 61.78521 | 34004 ft | 515 kts | 133° |
| 2026-05-01 12:57 | -58.14059 | 61.93202 | 34004 ft | 515 kts | 132° |
| 2026-05-01 12:58 | -58.18969 | 62.03069 | 34004 ft | 515 kts | 132° |
| 2026-05-01 12:59 | -58.26320 | 62.17917 | 34004 ft | 514 kts | 132° |
| 2026-05-01 12:59 | -58.33648 | 62.32819 | 34004 ft | 514 kts | 132° |
| 2026-05-01 13:00 | -58.40928 | 62.47716 | 34004 ft | 514 kts | 131° |
| 2026-05-01 13:01 | -58.48155 | 62.62603 | 34004 ft | 513 kts | 131° |
| 2026-05-01 13:02 | -58.55418 | 62.77664 | 34004 ft | 513 kts | 131° |
| 2026-05-01 13:07 | -59.07825 | 63.89356 | 33980 ft | 509 kts | 129° |
| 2026-05-01 13:08 | -59.12523 | 63.99638 | 33980 ft | 509 kts | 128° |
| 2026-05-01 13:08 | -59.17217 | 64.09956 | 33980 ft | 508 kts | 128° |
| 2026-05-01 13:09 | -59.21892 | 64.20284 | 33980 ft | 508 kts | 128° |
| 2026-05-01 13:09 | -59.26529 | 64.30569 | 33980 ft | 507 kts | 127° |
| 2026-05-01 13:10 | -59.31179 | 64.40933 | 33980 ft | 507 kts | 127° |
| 2026-05-01 13:10 | -59.35044 | 64.49580 | 33980 ft | 507 kts | 127° |
| 2026-05-01 13:11 | -59.39680 | 64.59998 | 33980 ft | 507 kts | 127° |
| 2026-05-01 13:11 | -59.45029 | 64.72074 | 33980 ft | 507 kts | 127° |
| 2026-05-01 13:12 | -59.49619 | 64.82488 | 33980 ft | 507 kts | 127° |
| 2026-05-01 13:12 | -59.53480 | 64.91286 | 33980 ft | 507 kts | 127° |
| 2026-05-01 13:13 | -59.58055 | 65.01753 | 33980 ft | 507 kts | 126° |
| 2026-05-01 13:13 | -59.62647 | 65.12307 | 33980 ft | 507 kts | 126° |
| 2026-05-01 13:14 | -59.67972 | 65.24606 | 33979 ft | 506 kts | 126° |
| 2026-05-01 13:14 | -59.71804 | 65.33499 | 33980 ft | 506 kts | 126° |
| 2026-05-01 13:15 | -59.76335 | 65.44057 | 33984 ft | 506 kts | 125° |
| 2026-05-01 13:15 | -59.80910 | 65.54666 | 33986 ft | 506 kts | 126° |
| 2026-05-01 13:16 | -59.85467 | 65.65289 | 33985 ft | 505 kts | 124° |
| 2026-05-01 13:16 | -59.89967 | 65.75992 | 33985 ft | 504 kts | 124° |
| 2026-05-01 13:17 | -59.98911 | 65.97382 | 33985 ft | 503 kts | 124° |
| 2026-05-01 13:18 | -60.05257 | 66.14046 | 33985 ft | 501 kts | 120° |
| 2026-05-01 13:18 | -60.09304 | 66.25362 | 33985 ft | 500 kts | 120° |
| 2026-05-01 13:19 | -60.13365 | 66.36692 | 33985 ft | 499 kts | 120° |
| 2026-05-01 13:20 | -60.19407 | 66.53607 | 33985 ft | 499 kts | 120° |
| 2026-05-01 13:20 | -60.23531 | 66.64855 | 33985 ft | 499 kts | 121° |
| 2026-05-01 13:21 | -60.29688 | 66.81780 | 33985 ft | 500 kts | 120° |
| 2026-05-01 13:21 | -60.33675 | 66.92923 | 33985 ft | 499 kts | 120° |
| 2026-05-01 13:22 | -60.37689 | 67.04227 | 33985 ft | 498 kts | 120° |
| 2026-05-01 13:22 | -60.41718 | 67.15640 | 33985 ft | 498 kts | 119° |
| 2026-05-01 13:23 | -60.45729 | 67.27063 | 33984 ft | 498 kts | 119° |
| 2026-05-01 13:23 | -60.49733 | 67.38522 | 33985 ft | 498 kts | 119° |
| 2026-05-01 13:24 | -60.53700 | 67.49931 | 33996 ft | 498 kts | 119° |
| 2026-05-01 13:25 | -60.59666 | 67.67199 | 33996 ft | 497 kts | 119° |
| 2026-05-01 13:25 | -60.63631 | 67.78747 | 33996 ft | 497 kts | 118° |
| 2026-05-01 13:26 | -60.67577 | 67.90296 | 33996 ft | 497 kts | 118° |
| 2026-05-01 13:26 | -60.71496 | 68.01824 | 33996 ft | 497 kts | 118° |
| 2026-05-01 13:27 | -60.75420 | 68.13424 | 33996 ft | 497 kts | 118° |
| 2026-05-01 13:27 | -60.81292 | 68.30891 | 33996 ft | 496 kts | 118° |
| 2026-05-01 13:28 | -60.87141 | 68.48421 | 33995 ft | 496 kts | 118° |
| 2026-05-01 13:29 | -60.94870 | 68.71792 | 33995 ft | 496 kts | 118° |
| 2026-05-01 13:31 | -61.06413 | 69.07140 | 34002 ft | 495 kts | 118° |
| 2026-05-01 13:31 | -61.12080 | 69.24696 | 34141 ft | 495 kts | 118° |
| 2026-05-01 13:32 | -61.15891 | 69.36573 | 34150 ft | 496 kts | 118° |
| 2026-05-01 13:33 | -61.25375 | 69.66409 | 34152 ft | 495 kts | 118° |
| 2026-05-01 13:34 | -61.32876 | 69.90282 | 34151 ft | 494 kts | 118° |
| 2026-05-01 13:35 | -61.38486 | 70.08300 | 34152 ft | 494 kts | 118° |
| 2026-05-01 13:36 | -61.44049 | 70.26306 | 34152 ft | 494 kts | 117° |
| 2026-05-01 13:36 | -61.49612 | 70.44453 | 34153 ft | 493 kts | 117° |
| 2026-05-01 13:37 | -61.53298 | 70.56558 | 34152 ft | 494 kts | 117° |
| 2026-05-01 13:37 | -61.56984 | 70.68728 | 34153 ft | 494 kts | 117° |
| 2026-05-01 13:38 | -61.62498 | 70.87053 | 34206 ft | 495 kts | 117° |
| 2026-05-01 13:39 | -61.66130 | 70.99206 | 34208 ft | 495 kts | 117° |
| 2026-05-01 13:39 | -61.69784 | 71.11500 | 34208 ft | 495 kts | 117° |
| 2026-05-01 13:40 | -61.73435 | 71.23846 | 34209 ft | 496 kts | 117° |
| 2026-05-01 13:40 | -61.77068 | 71.36199 | 34194 ft | 496 kts | 117° |
| 2026-05-01 13:41 | -61.80676 | 71.48534 | 34191 ft | 496 kts | 117° |
| 2026-05-01 13:41 | -61.84242 | 71.60793 | 34191 ft | 496 kts | 117° |
| 2026-05-01 13:42 | -61.87853 | 71.73272 | 34192 ft | 497 kts | 117° |
| 2026-05-01 13:42 | -61.91449 | 71.85767 | 34192 ft | 497 kts | 117° |
| 2026-05-01 13:43 | -61.95016 | 71.98232 | 34193 ft | 497 kts | 117° |
| 2026-05-01 13:43 | -61.98595 | 72.10806 | 34193 ft | 497 kts | 117° |
| 2026-05-01 13:44 | -62.02159 | 72.23398 | 34193 ft | 497 kts | 117° |
| 2026-05-01 13:44 | -62.05709 | 72.36010 | 34193 ft | 497 kts | 117° |
| 2026-05-01 13:45 | -62.09256 | 72.48680 | 34191 ft | 496 kts | 117° |
| 2026-05-01 13:45 | -62.12755 | 72.61252 | 34191 ft | 496 kts | 117° |
| 2026-05-01 13:46 | -62.16267 | 72.73940 | 34192 ft | 496 kts | 117° |
| 2026-05-01 13:46 | -62.19763 | 72.86642 | 34192 ft | 495 kts | 117° |
| 2026-05-01 13:47 | -62.23249 | 72.99380 | 34192 ft | 495 kts | 117° |
| 2026-05-01 13:47 | -62.26715 | 73.12118 | 34193 ft | 494 kts | 117° |
| 2026-05-01 13:48 | -62.30148 | 73.24802 | 34193 ft | 494 kts | 117° |
| 2026-05-01 13:48 | -62.33586 | 73.37580 | 34193 ft | 493 kts | 116° |
| 2026-05-01 13:49 | -62.37006 | 73.50362 | 34193 ft | 492 kts | 116° |
| 2026-05-01 13:49 | -62.40407 | 73.63148 | 34193 ft | 492 kts | 116° |
| 2026-05-01 13:50 | -62.43778 | 73.75894 | 34194 ft | 491 kts | 116° |
| 2026-05-01 13:50 | -62.47176 | 73.88812 | 34194 ft | 491 kts | 116° |
| 2026-05-01 13:51 | -62.50517 | 74.01592 | 34194 ft | 491 kts | 116° |
| 2026-05-01 13:51 | -62.53817 | 74.14285 | 34195 ft | 491 kts | 116° |
| 2026-05-01 13:52 | -62.57158 | 74.27207 | 34195 ft | 492 kts | 116° |
| 2026-05-01 13:52 | -62.60489 | 74.40169 | 34195 ft | 492 kts | 116° |
| 2026-05-01 13:53 | -62.63788 | 74.53081 | 34196 ft | 493 kts | 116° |
| 2026-05-01 13:53 | -62.68760 | 74.72682 | 34196 ft | 494 kts | 116° |
| 2026-05-01 13:54 | -62.72066 | 74.85814 | 34196 ft | 494 kts | 116° |
| 2026-05-01 13:54 | -62.75357 | 74.98967 | 34197 ft | 495 kts | 116° |
| 2026-05-01 13:55 | -62.78646 | 75.12186 | 34197 ft | 495 kts | 116° |
| 2026-05-01 13:55 | -62.81899 | 75.25338 | 34197 ft | 496 kts | 116° |
| 2026-05-01 13:56 | -62.85171 | 75.38616 | 34197 ft | 496 kts | 116° |
| 2026-05-01 13:56 | -62.88501 | 75.51870 | 34198 ft | 496 kts | 115° |
| 2026-05-01 13:57 | -62.91723 | 75.65246 | 34198 ft | 496 kts | 115° |
| 2026-05-01 13:57 | -62.94909 | 75.78595 | 34198 ft | 496 kts | 115° |
| 2026-05-01 13:58 | -62.98108 | 75.92040 | 34198 ft | 496 kts | 115° |
| 2026-05-01 13:58 | -63.01272 | 76.05516 | 34199 ft | 496 kts | 114° |
| 2026-05-01 13:59 | -63.04265 | 76.19242 | 34199 ft | 497 kts | 112° |
| 2026-05-01 13:59 | -63.07227 | 76.33009 | 34199 ft | 497 kts | 112° |
| 2026-05-01 14:00 | -63.10173 | 76.46772 | 34199 ft | 496 kts | 112° |
| 2026-05-01 14:00 | -63.13107 | 76.60590 | 34200 ft | 496 kts | 112° |
| 2026-05-01 14:01 | -63.16018 | 76.74116 | 34201 ft | 497 kts | 113° |
| 2026-05-01 14:01 | -63.19079 | 76.87818 | 34200 ft | 497 kts | 113° |
| 2026-05-01 14:02 | -63.22072 | 77.01626 | 34200 ft | 497 kts | 112° |
| 2026-05-01 14:02 | -63.25025 | 77.15484 | 34201 ft | 497 kts | 112° |
| 2026-05-01 14:03 | -63.27953 | 77.29374 | 34201 ft | 497 kts | 111° |
| 2026-05-01 14:03 | -63.30852 | 77.43243 | 34201 ft | 497 kts | 111° |
| 2026-05-01 14:04 | -63.33754 | 77.57223 | 34201 ft | 498 kts | 111° |
| 2026-05-01 14:04 | -63.36155 | 77.68866 | 34215 ft | 498 kts | 111° |
| 2026-05-01 14:05 | -63.39514 | 77.85268 | 34219 ft | 498 kts | 111° |
| 2026-05-01 14:05 | -63.42358 | 77.99256 | 34219 ft | 498 kts | 111° |
| 2026-05-01 14:06 | -63.45206 | 78.13361 | 34219 ft | 499 kts | 110° |
| 2026-05-01 14:06 | -63.48044 | 78.27515 | 34219 ft | 499 kts | 110° |
| 2026-05-01 14:07 | -63.50871 | 78.41711 | 34219 ft | 499 kts | 110° |
| 2026-05-01 14:08 | -63.55079 | 78.63026 | 34220 ft | 499 kts | 110° |
| 2026-05-01 14:08 | -63.57851 | 78.77188 | 34220 ft | 499 kts | 110° |
| 2026-05-01 14:09 | -63.60625 | 78.91466 | 34221 ft | 499 kts | 110° |
| 2026-05-01 14:09 | -63.63393 | 79.05810 | 34221 ft | 500 kts | 110° |
| 2026-05-01 14:10 | -63.66146 | 79.20177 | 34221 ft | 500 kts | 110° |
| 2026-05-01 14:10 | -63.68885 | 79.34576 | 34222 ft | 501 kts | 109° |
| 2026-05-01 14:11 | -63.71607 | 79.48989 | 34222 ft | 503 kts | 109° |
| 2026-05-01 14:11 | -63.75655 | 79.70620 | 34222 ft | 503 kts | 109° |
| 2026-05-01 14:12 | -63.78365 | 79.85228 | 34223 ft | 505 kts | 109° |
| 2026-05-01 14:12 | -63.81047 | 79.99800 | 34223 ft | 505 kts | 109° |
| 2026-05-01 14:13 | -63.83295 | 80.12091 | 34223 ft | 505 kts | 109° |
| 2026-05-01 14:13 | -63.86403 | 80.29216 | 34223 ft | 505 kts | 109° |
| 2026-05-01 14:14 | -63.89054 | 80.43944 | 34224 ft | 504 kts | 109° |
| 2026-05-01 14:14 | -63.91691 | 80.58702 | 34223 ft | 504 kts | 108° |
| 2026-05-01 14:15 | -63.94310 | 80.73476 | 34224 ft | 503 kts | 108° |
| 2026-05-01 14:15 | -63.96893 | 80.88155 | 34224 ft | 503 kts | 108° |
| 2026-05-01 14:16 | -63.99483 | 81.02986 | 34225 ft | 504 kts | 108° |
| 2026-05-01 14:16 | -64.02061 | 81.17865 | 34225 ft | 508 kts | 108° |
| 2026-05-01 14:17 | -64.04654 | 81.32944 | 34225 ft | 511 kts | 108° |
| 2026-05-01 14:17 | -64.07231 | 81.48049 | 34225 ft | 509 kts | 108° |
| 2026-05-01 14:18 | -64.09769 | 81.63045 | 34225 ft | 508 kts | 108° |
| 2026-05-01 14:18 | -64.11890 | 81.75672 | 34227 ft | 507 kts | 108° |
| 2026-05-01 14:19 | -64.14813 | 81.93208 | 34226 ft | 507 kts | 107° |
| 2026-05-01 14:19 | -64.17313 | 82.08339 | 34227 ft | 507 kts | 107° |
| 2026-05-01 14:20 | -64.21030 | 82.31065 | 34227 ft | 508 kts | 107° |
| 2026-05-01 14:21 | -64.23493 | 82.46279 | 34227 ft | 509 kts | 107° |
| 2026-05-01 14:21 | -64.25899 | 82.61258 | 34228 ft | 511 kts | 107° |
| 2026-05-01 14:22 | -64.29564 | 82.84319 | 34228 ft | 512 kts | 107° |
| 2026-05-01 14:22 | -64.31989 | 82.99736 | 34228 ft | 512 kts | 107° |
| 2026-05-01 14:23 | -64.34402 | 83.15208 | 34229 ft | 513 kts | 107° |
| 2026-05-01 14:23 | -64.36799 | 83.30714 | 34229 ft | 513 kts | 107° |
| 2026-05-01 14:24 | -64.39165 | 83.46145 | 34229 ft | 513 kts | 107° |
| 2026-05-01 14:24 | -64.41526 | 83.61678 | 34229 ft | 512 kts | 107° |
| 2026-05-01 14:25 | -64.43870 | 83.77236 | 34230 ft | 511 kts | 107° |
| 2026-05-01 14:25 | -64.46194 | 83.92792 | 34247 ft | 511 kts | 107° |
| 2026-05-01 14:26 | -64.49643 | 84.16140 | 34249 ft | 511 kts | 106° |
| 2026-05-01 14:27 | -64.51915 | 84.31693 | 34249 ft | 513 kts | 106° |
| 2026-05-01 14:27 | -64.54191 | 84.47413 | 34249 ft | 514 kts | 106° |
| 2026-05-01 14:28 | -64.57584 | 84.71110 | 34250 ft | 516 kts | 106° |
| 2026-05-01 14:28 | -64.59831 | 84.86989 | 34250 ft | 517 kts | 106° |
| 2026-05-01 14:29 | -64.62053 | 85.02833 | 34251 ft | 518 kts | 106° |
| 2026-05-01 14:30 | -64.66477 | 85.34831 | 34251 ft | 519 kts | 106° |
| 2026-05-01 14:31 | -64.69750 | 85.58894 | 34252 ft | 518 kts | 106° |
| 2026-05-01 14:31 | -64.71878 | 85.74732 | 34252 ft | 518 kts | 106° |
| 2026-05-01 14:32 | -64.74008 | 85.90734 | 34252 ft | 518 kts | 105° |
| 2026-05-01 14:32 | -64.76132 | 86.06855 | 34303 ft | 519 kts | 105° |
| 2026-05-01 14:33 | -64.78256 | 86.23128 | 34312 ft | 523 kts | 105° |
| 2026-05-01 14:33 | -64.80365 | 86.39444 | 34312 ft | 523 kts | 105° |
| 2026-05-01 14:34 | -64.82445 | 86.55705 | 34313 ft | 524 kts | 105° |
| 2026-05-01 14:34 | -64.84525 | 86.72128 | 34313 ft | 525 kts | 105° |
| 2026-05-01 14:35 | -64.86591 | 86.88619 | 34314 ft | 526 kts | 105° |
| 2026-05-01 14:35 | -64.88647 | 87.05188 | 34315 ft | 527 kts | 105° |
| 2026-05-01 14:36 | -64.90683 | 87.21778 | 34315 ft | 528 kts | 105° |
| 2026-05-01 14:36 | -64.92795 | 87.38354 | 34316 ft | 529 kts | 106° |
| 2026-05-01 14:37 | -64.94785 | 87.54953 | 34316 ft | 529 kts | 105° |
| 2026-05-01 14:37 | -64.96729 | 87.71696 | 34316 ft | 530 kts | 105° |
| 2026-05-01 14:38 | -64.98672 | 87.88503 | 34317 ft | 530 kts | 105° |
| 2026-05-01 14:38 | -65.00616 | 88.05279 | 34315 ft | 531 kts | 105° |
| 2026-05-01 14:39 | -65.02632 | 88.22169 | 34317 ft | 534 kts | 105° |
| 2026-05-01 14:39 | -65.04595 | 88.39002 | 34318 ft | 534 kts | 105° |
| 2026-05-01 14:40 | -65.06538 | 88.55991 | 34318 ft | 535 kts | 105° |
| 2026-05-01 14:40 | -65.08453 | 88.73055 | 34316 ft | 535 kts | 105° |
| 2026-05-01 14:41 | -65.10470 | 88.90053 | 34318 ft | 536 kts | 107° |
| 2026-05-01 14:41 | -65.12520 | 89.06901 | 34318 ft | 536 kts | 106° |
| 2026-05-01 14:42 | -65.14483 | 89.23873 | 34318 ft | 537 kts | 105° |
| 2026-05-01 14:42 | -65.16413 | 89.41010 | 34320 ft | 538 kts | 105° |
| 2026-05-01 14:43 | -65.18324 | 89.58261 | 34319 ft | 539 kts | 105° |
| 2026-05-01 14:43 | -65.20212 | 89.75539 | 34320 ft | 540 kts | 105° |
| 2026-05-01 14:44 | -65.22075 | 89.92803 | 34321 ft | 541 kts | 105° |
| 2026-05-01 14:44 | -65.24856 | 90.18977 | 34322 ft | 545 kts | 105° |
| 2026-05-01 14:45 | -65.27600 | 90.45287 | 34322 ft | 545 kts | 104° |
| 2026-05-01 14:46 | -65.29404 | 90.62862 | 34300 ft | 545 kts | 104° |
| 2026-05-01 14:46 | -65.32065 | 90.89193 | 34294 ft | 545 kts | 104° |
| 2026-05-01 14:47 | -65.33820 | 91.06854 | 34294 ft | 546 kts | 104° |
| 2026-05-01 14:48 | -65.36422 | 91.33472 | 34295 ft | 548 kts | 104° |
| 2026-05-01 14:48 | -65.38985 | 91.60213 | 34296 ft | 550 kts | 104° |
| 2026-05-01 14:49 | -65.42332 | 91.95994 | 34296 ft | 552 kts | 104° |
| 2026-05-01 14:50 | -65.45618 | 92.32132 | 34297 ft | 554 kts | 104° |
| 2026-05-01 14:51 | -65.47967 | 92.58622 | 34298 ft | 553 kts | 104° |
| 2026-05-01 14:52 | -65.50326 | 92.85811 | 34299 ft | 553 kts | 103° |
| 2026-05-01 14:53 | -65.52638 | 93.13080 | 34300 ft | 554 kts | 103° |
| 2026-05-01 14:53 | -65.54153 | 93.31299 | 34301 ft | 554 kts | 103° |
| 2026-05-01 14:54 | -65.55637 | 93.49414 | 34302 ft | 555 kts | 103° |
| 2026-05-01 14:54 | -65.57115 | 93.67750 | 34302 ft | 556 kts | 103° |
| 2026-05-01 14:55 | -65.58569 | 93.86082 | 34302 ft | 556 kts | 103° |
| 2026-05-01 14:55 | -65.60004 | 94.04484 | 34303 ft | 557 kts | 103° |
| 2026-05-01 14:56 | -65.61407 | 94.22770 | 34304 ft | 557 kts | 103° |
| 2026-05-01 14:56 | -65.62800 | 94.41233 | 34304 ft | 557 kts | 103° |
| 2026-05-01 14:57 | -65.64167 | 94.59666 | 34304 ft | 557 kts | 103° |
| 2026-05-01 14:57 | -65.66182 | 94.87441 | 34283 ft | 558 kts | 103° |
| 2026-05-01 14:58 | -65.67498 | 95.05996 | 34283 ft | 559 kts | 103° |
| 2026-05-01 14:58 | -65.68784 | 95.24471 | 34285 ft | 559 kts | 103° |
| 2026-05-01 14:59 | -65.70057 | 95.43091 | 34283 ft | 560 kts | 102° |
| 2026-05-01 14:59 | -65.71312 | 95.61805 | 34285 ft | 561 kts | 103° |
| 2026-05-01 15:00 | -65.73145 | 95.89796 | 34286 ft | 562 kts | 102° |
| 2026-05-01 15:01 | -65.74344 | 96.08568 | 34287 ft | 562 kts | 102° |
| 2026-05-01 15:01 | -65.75502 | 96.27076 | 34287 ft | 563 kts | 102° |
| 2026-05-01 15:02 | -65.76657 | 96.45923 | 34288 ft | 563 kts | 102° |
| 2026-05-01 15:02 | -65.77790 | 96.64787 | 34288 ft | 563 kts | 102° |
| 2026-05-01 15:03 | -65.78897 | 96.83635 | 34289 ft | 562 kts | 102° |
| 2026-05-01 15:03 | -65.79980 | 97.02495 | 34285 ft | 562 kts | 102° |
| 2026-05-01 15:04 | -65.81035 | 97.21271 | 34285 ft | 562 kts | 102° |
| 2026-05-01 15:04 | -65.82072 | 97.40154 | 34286 ft | 562 kts | 102° |
| 2026-05-01 15:05 | -65.83086 | 97.59068 | 34286 ft | 562 kts | 102° |
| 2026-05-01 15:05 | -65.84077 | 97.77972 | 34286 ft | 562 kts | 102° |
| 2026-05-01 15:06 | -65.85042 | 97.96875 | 34288 ft | 562 kts | 102° |
| 2026-05-01 15:06 | -65.85981 | 98.15707 | 34290 ft | 562 kts | 102° |
| 2026-05-01 15:07 | -65.86900 | 98.34639 | 34290 ft | 562 kts | 102° |
| 2026-05-01 15:07 | -65.87800 | 98.53662 | 34291 ft | 564 kts | 102° |
| 2026-05-01 15:08 | -65.88678 | 98.72743 | 34291 ft | 565 kts | 101° |
| 2026-05-01 15:08 | -65.89530 | 98.91768 | 34292 ft | 567 kts | 101° |
| 2026-05-01 15:09 | -65.90365 | 99.10980 | 34293 ft | 569 kts | 101° |
| 2026-05-01 15:09 | -65.91180 | 99.30296 | 34293 ft | 571 kts | 101° |
| 2026-05-01 15:10 | -65.91972 | 99.49680 | 34290 ft | 573 kts | 101° |
| 2026-05-01 15:10 | -65.93119 | 99.78880 | 34293 ft | 575 kts | 101° |
| 2026-05-01 15:11 | -65.94200 | 100.07694 | 34296 ft | 574 kts | 100° |
| 2026-05-01 15:12 | -65.94891 | 100.27068 | 34296 ft | 574 kts | 100° |
| 2026-05-01 15:12 | -65.95894 | 100.56378 | 34297 ft | 576 kts | 99° |
| 2026-05-01 15:14 | -65.97350 | 101.02181 | 34303 ft | 581 kts | 100° |
| 2026-05-01 15:14 | -65.98411 | 101.34894 | 34324 ft | 577 kts | 100° |
| 2026-05-01 15:15 | -65.99312 | 101.70508 | 34305 ft | 569 kts | 97° |
| 2026-05-01 15:16 | -65.99734 | 102.12623 | 34451 ft | 572 kts | 89° |
| 2026-05-01 15:17 | -65.99111 | 102.28979 | 34662 ft | 575 kts | 86° |
| 2026-05-01 15:18 | -65.97861 | 102.58136 | 35035 ft | 575 kts | 86° |
| 2026-05-01 15:18 | -65.97449 | 102.67910 | 35160 ft | 575 kts | 86° |
| 2026-05-01 15:19 | -65.96328 | 102.97221 | 35310 ft | 577 kts | 89° |
| 2026-05-01 15:19 | -65.95328 | 103.26556 | 35311 ft | 579 kts | 87° |
| 2026-05-01 15:20 | -65.94128 | 103.56021 | 35312 ft | 581 kts | 87° |
| 2026-05-01 15:21 | -65.93279 | 103.75725 | 35312 ft | 581 kts | 86° |
| 2026-05-01 15:21 | -65.92410 | 103.95226 | 35312 ft | 582 kts | 86° |
| 2026-05-01 15:22 | -65.91052 | 104.24624 | 35313 ft | 582 kts | 86° |
| 2026-05-01 15:22 | -65.90111 | 104.44299 | 35316 ft | 582 kts | 86° |
| 2026-05-01 15:23 | -65.89145 | 104.63952 | 35314 ft | 583 kts | 86° |
| 2026-05-01 15:23 | -65.88150 | 104.83656 | 35314 ft | 584 kts | 86° |
| 2026-05-01 15:24 | -65.87128 | 105.03368 | 35315 ft | 585 kts | 86° |
| 2026-05-01 15:24 | -65.86088 | 105.22943 | 35316 ft | 586 kts | 86° |
| 2026-05-01 15:25 | -65.85013 | 105.42688 | 35316 ft | 587 kts | 85° |
| 2026-05-01 15:25 | -65.83909 | 105.62460 | 35301 ft | 588 kts | 85° |
| 2026-05-01 15:26 | -65.82779 | 105.82240 | 35300 ft | 589 kts | 85° |
| 2026-05-01 15:26 | -65.81624 | 106.02004 | 35301 ft | 589 kts | 85° |
| 2026-05-01 15:27 | -65.80449 | 106.21648 | 35301 ft | 589 kts | 85° |
| 2026-05-01 15:28 | -65.78627 | 106.51265 | 35307 ft | 589 kts | 85° |
| 2026-05-01 15:28 | -65.77384 | 106.70955 | 35308 ft | 589 kts | 85° |
| 2026-05-01 15:29 | -65.75472 | 107.00435 | 35308 ft | 587 kts | 84° |
| 2026-05-01 15:30 | -65.73067 | 107.36280 | 35309 ft | 586 kts | 84° |
| 2026-05-01 15:31 | -65.68747 | 107.97593 | 35310 ft | 584 kts | 84° |
| 2026-05-01 15:32 | -65.65881 | 108.36360 | 35268 ft | 584 kts | 84° |
| 2026-05-01 15:33 | -65.63676 | 108.65263 | 35076 ft | 584 kts | 83° |
| 2026-05-01 15:34 | -65.61406 | 108.94239 | 34858 ft | 584 kts | 83° |